Time;durP1;ratioP1;P1;durP2;ratioP2;P2;SDS_P1;SDS_P2;PMS_P1;PMS_P2;Temp;Humidity;BMP_temperature;BMP_pressure;BME280_temperature;BME280_humidity;BME280_pressure;Samples;Min_cycle;Max_cycle;Signal;HPM_P1;HPM_P2
2023/01/19 00:01:33;;;;;;;;;;;;;;;20.56;23.79;96768.28;5067931;28;19952;-96
2023/01/19 00:03:59;;;;;;;;;;;;;;;21.43;22.81;96761.22;5071508;28;19919;-96
2023/01/19 00:06:26;;;;;;;;;;;;;;;21.54;22.35;96763.69;5063534;28;19951;-96
2023/01/19 00:08:52;;;;;;;;;;;;;;;19.29;25.11;96763.97;5068543;28;19913;-96
2023/01/19 00:11:18;;;;;;;;;;;;;;;19.60;25.05;96761.66;5079551;28;19936;-96
2023/01/19 00:13:48;;;;;;;;;;;;;;;20.55;23.87;96763.91;5069082;28;19920;-93
2023/01/19 00:16:16;;;;;;;;;;;;;;;20.33;24.21;96772.06;5059712;28;19905;-92
2023/01/19 00:18:43;;;;;;;;;;;;;;;19.83;24.58;96772.59;5059642;28;19905;-96
2023/01/19 00:21:09;;;;;;;;;;;;;;;18.66;26.08;96781.28;5059649;28;19911;-96
2023/01/19 00:23:35;;;;;;;;;;;;;;;18.15;27.09;96777.91;5059660;28;19932;-96
2023/01/19 00:26:01;;;;;;;;;;;;;;;18.13;27.34;96780.34;5075936;28;19908;-96
2023/01/19 00:28:27;;;;;;;;;;;;;;;18.51;26.60;96776.03;5059649;28;19909;-84
2023/01/19 00:30:53;;;;;;;;;;;;;;;19.10;26.03;96773.16;5073570;28;19920;-83
2023/01/19 00:33:19;;;;;;;;;;;;;;;19.68;25.24;96781.72;5079733;28;19909;-83
2023/01/19 00:35:49;;;;;;;;;;;;;;;19.62;24.94;96778.72;5079857;28;19904;-81
2023/01/19 00:38:15;;;;;;;;;;;;;;;19.53;25.27;96781.31;5079688;28;19921;-92
2023/01/19 00:40:41;;;;;;;;;;;;;;;20.58;24.10;96777.72;5079565;28;19927;-83
2023/01/19 00:43:07;;;;;;;;;;;;;;;20.58;24.02;96783.31;5078582;28;19972;-96
2023/01/19 00:45:33;;;;;;;;;;;;;;;19.88;25.04;96782.44;5090046;28;19925;-96
2023/01/19 00:47:59;;;;;;;;;;;;;;;18.65;26.55;96790.84;5080044;28;19927;-96
2023/01/19 00:50:27;;;;;;;;;;;;;;;19.23;25.97;96782.38;5076525;28;19912;-96
2023/01/19 00:52:54;;;;;;;;;;;;;;;18.58;26.71;96780.63;5069159;28;19928;-90
2023/01/19 00:55:20;;;;;;;;;;;;;;;19.75;25.31;96778.78;5079423;28;19917;-86
2023/01/19 00:57:46;;;;;;;;;;;;;;;20.22;24.51;96773.59;5079377;28;19905;-88
2023/01/19 01:00:13;;;;;;;;;;;;;;;20.62;24.21;96783.22;5071740;28;19981;-96
2023/01/19 01:02:40;;;;;;;;;;;;;;;21.18;23.19;96775.97;5057517;28;19945;-96
2023/01/19 01:05:07;;;;;;;;;;;;;;;21.31;23.27;96773.97;5059367;28;19913;-88
2023/01/19 01:07:39;;;;;;;;;;;;;;;21.47;22.88;96770.25;5059428;28;19928;-86
2023/01/19 01:10:08;;;;;;;;;;;;;;;20.86;23.68;96767.00;5059330;28;19944;-82
2023/01/19 01:12:34;;;;;;;;;;;;;;;21.54;23.04;96760.91;5059421;28;19905;-91
2023/01/19 01:15:00;;;;;;;;;;;;;;;20.34;24.24;96761.72;5062993;28;19976;-88
2023/01/19 01:17:26;;;;;;;;;;;;;;;21.12;23.58;96757.47;5063295;28;19912;-94
2023/01/19 01:19:52;;;;;;;;;;;;;;;21.86;22.77;96755.84;5068709;28;19909;-96
2023/01/19 01:22:18;;;;;;;;;;;;;;;22.27;22.31;96759.59;5101122;28;19904;-94
2023/01/19 01:24:44;;;;;;;;;;;;;;;22.82;21.37;96753.22;5082735;28;19948;-86
2023/01/19 01:27:10;;;;;;;;;;;;;;;22.96;21.47;96752.66;5083049;28;19920;-91
2023/01/19 01:29:38;;;;;;;;;;;;;;;22.72;21.31;96748.00;5083158;28;19971;-94
2023/01/19 01:32:04;;;;;;;;;;;;;;;22.03;22.32;96746.03;5070206;28;19961;-96
2023/01/19 01:34:30;;;;;;;;;;;;;;;22.68;21.72;96743.31;5098590;28;19923;-84
2023/01/19 01:36:56;;;;;;;;;;;;;;;22.61;21.60;96737.97;5082957;28;19925;-91
2023/01/19 01:39:22;;;;;;;;;;;;;;;22.75;21.82;96736.69;5082103;28;19912;-96
2023/01/19 01:41:48;;;;;;;;;;;;;;;23.21;21.00;96744.06;5095149;28;19932;-85
2023/01/19 01:44:33;;;;;;;;;;;;;;;23.67;20.89;96739.41;5101823;28;19959;-96
2023/01/19 01:46:59;;;;;;;;;;;;;;;24.08;20.60;96728.94;5064644;28;19928;-96
2023/01/19 01:49:25;;;;;;;;;;;;;;;23.69;20.54;96727.75;5062655;28;19906;-96
2023/01/19 01:51:53;;;;;;;;;;;;;;;23.16;21.00;96724.28;5073380;28;19913;-91
2023/01/19 01:54:25;;;;;;;;;;;;;;;23.07;21.37;96721.44;5082359;28;19912;-95
2023/01/19 01:56:54;;;;;;;;;;;;;;;23.32;21.20;96724.03;5080961;28;19936;-96
2023/01/19 01:59:27;;;;;;;;;;;;;;;23.54;21.40;96726.78;5070637;28;19948;-96
2023/01/19 02:04:40;;;;;;;;;;;;;;;23.46;20.66;96729.09;5053524;28;19947;-96
2023/01/19 02:15:21;;;;;;;;;;;;;;;22.08;22.38;96716.75;5066625;28;19932;-96
2023/01/19 02:17:47;;;;;;;;;;;;;;;22.08;22.56;96722.31;5044474;28;20012;-96
2023/01/19 02:20:13;;;;;;;;;;;;;;;22.13;22.37;96718.16;5064119;28;19944;-96
2023/01/19 02:22:50;;;;;;;;;;;;;;;22.01;22.57;96719.78;5080547;28;19927;-96
2023/01/19 02:25:18;;;;;;;;;;;;;;;22.57;22.09;96717.72;5081664;28;19924;-96
2023/01/19 02:27:44;;;;;;;;;;;;;;;22.83;22.23;96717.59;5068686;28;19905;-96
2023/01/19 02:30:12;;;;;;;;;;;;;;;23.56;21.79;96711.06;5080715;28;19980;-96
2023/01/19 02:32:38;;;;;;;;;;;;;;;23.86;21.13;96710.19;5096520;28;19905;-96
2023/01/19 02:35:04;;;;;;;;;;;;;;;23.92;20.58;96705.50;5077415;28;19980;-96
2023/01/19 02:37:33;;;;;;;;;;;;;;;23.49;20.80;96704.97;5060878;28;19972;-96
2023/01/19 02:40:00;;;;;;;;;;;;;;;23.68;21.04;96710.16;5058903;28;19921;-96
2023/01/19 02:42:28;;;;;;;;;;;;;;;23.89;20.94;96717.69;5050728;28;19931;-96
2023/01/19 02:44:55;;;;;;;;;;;;;;;24.13;20.74;96711.50;5062085;28;19992;-96
2023/01/19 02:47:21;;;;;;;;;;;;;;;24.35;20.30;96720.50;5066903;28;19921;-96
2023/01/19 02:49:57;;;;;;;;;;;;;;;24.33;20.27;96720.19;5061010;28;19921;-96
2023/01/19 02:52:24;;;;;;;;;;;;;;;24.27;20.91;96733.31;5057175;28;20019;-96
2023/01/19 02:54:56;;;;;;;;;;;;;;;24.48;19.98;96730.31;5055674;28;19932;-95
2023/01/19 02:57:39;;;;;;;;;;;;;;;23.86;20.59;96729.03;5052265;28;19921;-96
2023/01/19 03:00:31;;;;;;;;;;;;;;;23.41;21.13;96729.69;5050026;28;19921;-95
2023/01/19 03:02:57;;;;;;;;;;;;;;;22.96;21.66;96740.69;5058028;28;19978;-96
2023/01/19 03:05:44;;;;;;;;;;;;;;;22.86;21.72;96737.06;5067924;28;20007;-96
2023/01/19 03:08:10;;;;;;;;;;;;;;;22.74;21.92;96735.13;5057117;28;19924;-96
2023/01/19 03:10:39;;;;;;;;;;;;;;;22.61;22.00;96740.00;5060565;28;19921;-96
2023/01/19 03:13:10;;;;;;;;;;;;;;;22.66;22.22;96733.84;5057151;28;19932;-96
2023/01/19 03:15:41;;;;;;;;;;;;;;;23.36;21.48;96739.47;5053071;28;19943;-96
2023/01/19 03:18:09;;;;;;;;;;;;;;;23.91;20.67;96753.63;5048884;28;19925;-96
2023/01/19 03:20:36;;;;;;;;;;;;;;;24.01;21.03;96736.34;5091424;28;19921;-96
2023/01/19 03:23:05;;;;;;;;;;;;;;;24.31;20.30;96733.91;5074509;28;19921;-96
2023/01/19 03:25:34;;;;;;;;;;;;;;;23.84;20.73;96740.72;5066718;28;19944;-96
2023/01/19 03:28:00;;;;;;;;;;;;;;;24.10;20.90;96737.66;5072633;28;19925;-96
2023/01/19 03:30:28;;;;;;;;;;;;;;;24.46;20.88;96741.22;5054133;28;20393;-96
2023/01/19 03:33:09;;;;;;;;;;;;;;;24.65;19.79;96742.78;5044550;28;19999;-96
2023/01/19 03:35:38;;;;;;;;;;;;;;;25.02;20.10;96751.91;5052274;28;19921;-96
2023/01/19 03:38:07;;;;;;;;;;;;;;;25.25;19.89;96762.44;5057371;28;19920;-95
2023/01/19 03:40:34;;;;;;;;;;;;;;;25.34;19.94;96762.41;5047385;28;20008;-96
2023/01/19 03:43:01;;;;;;;;;;;;;;;25.31;19.91;96773.84;5048789;28;19921;-96
2023/01/19 03:45:27;;;;;;;;;;;;;;;25.06;19.57;96769.41;5049618;28;20011;-96
2023/01/19 03:47:53;;;;;;;;;;;;;;;24.97;20.25;96760.97;5048261;28;20479;-95
2023/01/19 03:50:23;;;;;;;;;;;;;;;24.68;20.00;96769.13;5051523;28;20015;-95
2023/01/19 03:52:59;;;;;;;;;;;;;;;24.70;20.16;96763.81;5048621;28;19925;-95
2023/01/19 03:55:25;;;;;;;;;;;;;;;24.67;20.04;96764.75;5045888;28;19943;-92
2023/01/19 03:57:51;;;;;;;;;;;;;;;24.45;20.59;96764.16;5050221;28;20284;-95
2023/01/19 04:00:17;;;;;;;;;;;;;;;24.66;20.96;96771.63;5052215;28;19934;-94
2023/01/19 04:02:43;;;;;;;;;;;;;;;24.73;19.75;96774.91;5051740;28;19924;-96
2023/01/19 04:05:09;;;;;;;;;;;;;;;24.90;20.46;96774.59;5047572;28;19990;-96
2023/01/19 04:07:35;;;;;;;;;;;;;;;24.76;19.88;96790.06;5047068;28;19921;-95
2023/01/19 04:10:01;;;;;;;;;;;;;;;24.77;20.27;96788.78;5048335;28;19917;-96
2023/01/19 04:12:27;;;;;;;;;;;;;;;24.66;19.77;96760.41;5054014;28;19921;-96
2023/01/19 04:14:53;;;;;;;;;;;;;;;24.59;20.18;96755.09;5059080;28;19924;-95
2023/01/19 04:17:19;;;;;;;;;;;;;;;24.56;19.95;96742.78;5054714;28;19925;-95
2023/01/19 04:19:45;;;;;;;;;;;;;;;24.43;20.48;96732.97;5058178;28;20289;-95
2023/01/19 04:22:11;;;;;;;;;;;;;;;24.37;20.16;96723.63;5053831;28;20328;-96
2023/01/19 04:24:37;;;;;;;;;;;;;;;24.44;20.81;96724.09;5052645;28;19966;-96
2023/01/19 04:27:03;;;;;;;;;;;;;;;24.78;20.17;96717.38;5042471;28;19974;-96
2023/01/19 04:29:29;;;;;;;;;;;;;;;24.94;20.24;96722.63;5050633;28;20603;-95
2023/01/19 04:31:56;;;;;;;;;;;;;;;25.05;20.35;96728.50;5053029;28;19921;-95
2023/01/19 04:34:22;;;;;;;;;;;;;;;25.24;20.12;96740.47;5048839;28;19921;-95
2023/01/19 04:36:50;;;;;;;;;;;;;;;25.30;19.47;96747.75;5048590;28;20300;-96
2023/01/19 04:39:16;;;;;;;;;;;;;;;25.29;19.87;96763.09;5048954;28;20368;-94
2023/01/19 04:41:42;;;;;;;;;;;;;;;25.36;19.85;96754.31;5050279;28;19932;-94
2023/01/19 04:44:08;;;;;;;;;;;;;;;25.07;20.04;96756.91;5049858;28;19929;-95
2023/01/19 04:46:34;;;;;;;;;;;;;;;25.16;19.79;96784.19;5053222;28;19921;-95
2023/01/19 04:49:00;;;;;;;;;;;;;;;25.07;19.45;96782.19;5054104;28;19920;-95
2023/01/19 04:51:27;;;;;;;;;;;;;;;24.22;20.24;96773.97;5047414;28;19925;-95
2023/01/19 04:53:53;;;;;;;;;;;;;;;21.96;22.93;96779.81;5050986;28;20384;-95
2023/01/19 04:56:19;;;;;;;;;;;;;;;21.52;23.65;96785.72;5052118;28;19971;-95
2023/01/19 04:58:45;;;;;;;;;;;;;;;22.07;22.54;96784.28;5045393;28;19921;-94
2023/01/19 05:01:11;;;;;;;;;;;;;;;22.84;21.70;96777.94;5049950;28;19975;-94
2023/01/19 05:03:37;;;;;;;;;;;;;;;23.09;21.39;96777.75;5052081;28;20038;-94
2023/01/19 05:06:03;;;;;;;;;;;;;;;22.82;21.65;96786.00;5046915;28;20415;-94
2023/01/19 05:08:29;;;;;;;;;;;;;;;23.15;21.70;96790.69;5052138;28;19975;-91
2023/01/19 05:10:56;;;;;;;;;;;;;;;23.41;21.85;96788.50;5049378;28;19921;-91
2023/01/19 05:13:22;;;;;;;;;;;;;;;23.57;21.09;96784.69;5048682;28;19925;-87
2023/01/19 05:15:49;;;;;;;;;;;;;;;23.52;20.75;96786.09;5043350;28;19974;-91
2023/01/19 05:18:15;;;;;;;;;;;;;;;23.53;21.16;96798.84;5049975;28;19956;-91
2023/01/19 05:20:41;;;;;;;;;;;;;;;23.70;21.27;96800.16;5048800;28;19921;-91
2023/01/19 05:23:07;;;;;;;;;;;;;;;24.30;20.56;96814.47;5042176;28;19929;-91
2023/01/19 05:25:33;;;;;;;;;;;;;;;24.71;20.20;96804.69;5043426;28;19921;-88
2023/01/19 05:27:59;;;;;;;;;;;;;;;24.47;19.61;96812.94;5042547;28;20303;-92
2023/01/19 05:30:25;;;;;;;;;;;;;;;23.45;21.02;96808.78;5046420;28;19920;-90
2023/01/19 05:32:51;;;;;;;;;;;;;;;22.95;21.71;96814.69;5045375;28;19920;-89
2023/01/19 05:35:17;;;;;;;;;;;;;;;22.83;21.97;96812.72;5054058;28;19924;-86
2023/01/19 05:37:43;;;;;;;;;;;;;;;22.79;21.87;96806.50;5051082;28;19927;-89
2023/01/19 05:40:09;;;;;;;;;;;;;;;22.56;22.05;96808.50;5046500;28;20277;-89
2023/01/19 05:42:35;;;;;;;;;;;;;;;22.47;22.32;96814.00;5042144;28;19936;-90
2023/01/19 05:45:02;;;;;;;;;;;;;;;21.93;23.02;96819.88;5052177;28;20277;-89
2023/01/19 05:47:28;;;;;;;;;;;;;;;21.79;23.21;96830.69;5050074;28;19927;-89
2023/01/19 05:49:54;;;;;;;;;;;;;;;22.30;22.54;96829.41;5042288;28;19972;-87
2023/01/19 05:52:21;;;;;;;;;;;;;;;22.16;22.81;96827.09;5047568;28;19986;-93
2023/01/19 05:54:47;;;;;;;;;;;;;;;22.29;22.60;96824.22;5049002;28;19921;-88
2023/01/19 05:57:14;;;;;;;;;;;;;;;22.46;22.31;96825.63;5050354;28;20374;-89
2023/01/19 05:59:40;;;;;;;;;;;;;;;22.54;22.33;96833.31;5045151;28;19920;-94
2023/01/19 06:02:07;;;;;;;;;;;;;;;22.80;22.20;96839.59;5042500;28;19978;-94
2023/01/19 06:04:36;;;;;;;;;;;;;;;22.81;22.05;96846.78;5062591;28;20491;-96
2023/01/19 06:07:03;;;;;;;;;;;;;;;21.63;23.40;96842.78;5067644;28;20063;-96
2023/01/19 06:09:29;;;;;;;;;;;;;;;21.07;24.16;96833.34;5068255;28;19913;-96
2023/01/19 06:11:56;;;;;;;;;;;;;;;21.83;23.10;96834.16;5078565;28;20435;-96
2023/01/19 06:14:23;;;;;;;;;;;;;;;22.17;22.81;96820.25;5084327;28;19931;-96
2023/01/19 06:16:49;;;;;;;;;;;;;;;22.20;22.66;96827.72;5069194;28;20007;-96
2023/01/19 06:19:15;;;;;;;;;;;;;;;22.44;22.21;96831.69;5068951;28;19917;-96
2023/01/19 06:21:48;;;;;;;;;;;;;;;22.77;22.02;96837.75;5069728;28;19944;-96
2023/01/19 06:24:14;;;;;;;;;;;;;;;22.97;21.71;96835.38;5075826;28;19917;-96
2023/01/19 06:26:42;;;;;;;;;;;;;;;22.54;22.28;96852.91;5076964;28;19948;-96
2023/01/19 06:29:09;;;;;;;;;;;;;;;22.68;22.28;96866.41;5075014;28;19944;-96
2023/01/19 06:31:35;;;;;;;;;;;;;;;22.82;21.68;96881.16;5069828;28;20396;-96
2023/01/19 06:34:01;;;;;;;;;;;;;;;22.25;22.37;96885.88;5065704;28;19916;-96
2023/01/19 06:36:27;;;;;;;;;;;;;;;22.06;22.78;96883.31;5062694;28;19917;-96
2023/01/19 06:38:53;;;;;;;;;;;;;;;22.07;22.72;96896.09;5061372;28;19917;-96
2023/01/19 06:41:19;;;;;;;;;;;;;;;22.00;23.01;96906.28;5063111;28;19921;-96
2023/01/19 06:43:45;;;;;;;;;;;;;;;21.68;23.27;96902.91;5072851;28;20000;-96
2023/01/19 06:46:12;;;;;;;;;;;;;;;21.26;23.85;96905.72;5076359;28;19916;-96
2023/01/19 06:48:38;;;;;;;;;;;;;;;21.87;23.32;96902.69;5066615;28;19923;-96
2023/01/19 06:51:05;;;;;;;;;;;;;;;21.58;23.58;96902.00;5072169;28;19963;-96
2023/01/19 06:53:31;;;;;;;;;;;;;;;22.30;22.56;96909.69;5076846;28;19916;-96
2023/01/19 06:55:59;;;;;;;;;;;;;;;22.99;21.67;96916.09;5074563;28;19923;-96
2023/01/19 06:58:26;;;;;;;;;;;;;;;22.64;22.17;96915.34;5072620;28;20304;-96
2023/01/19 07:00:53;;;;;;;;;;;;;;;23.12;22.06;96919.63;5078470;28;19919;-96
2023/01/19 07:03:22;;;;;;;;;;;;;;;23.49;21.12;96917.88;5077956;28;19921;-96
2023/01/19 07:05:52;;;;;;;;;;;;;;;23.08;21.57;96905.00;5079147;28;20000;-96
2023/01/19 07:08:22;;;;;;;;;;;;;;;22.93;21.67;96918.72;5078773;28;19921;-96
2023/01/19 07:10:55;;;;;;;;;;;;;;;23.32;21.73;96920.88;5078584;28;19988;-96
2023/01/19 07:13:39;;;;;;;;;;;;;;;24.02;20.95;96917.38;5080455;28;19989;-96
2023/01/19 07:16:06;;;;;;;;;;;;;;;24.36;20.40;96924.06;5089807;28;19925;-96
2023/01/19 07:18:32;;;;;;;;;;;;;;;24.38;20.65;96927.19;5085106;28;20066;-96
2023/01/19 07:20:58;;;;;;;;;;;;;;;24.11;20.46;96907.47;5074355;28;19921;-96
2023/01/19 07:23:31;;;;;;;;;;;;;;;24.23;20.64;96914.97;5073598;28;19916;-96
2023/01/19 07:25:57;;;;;;;;;;;;;;;24.49;20.30;96911.47;5072840;28;19916;-96
2023/01/19 07:28:23;;;;;;;;;;;;;;;24.60;20.37;96906.16;5072739;28;19917;-96
2023/01/19 07:30:50;;;;;;;;;;;;;;;24.74;19.95;96919.59;5087526;28;19927;-96
2023/01/19 07:33:16;;;;;;;;;;;;;;;24.38;20.32;96918.75;5072562;28;19917;-96
2023/01/19 07:35:47;;;;;;;;;;;;;;;23.76;20.86;96902.00;5087783;28;19917;-96
2023/01/19 07:38:14;;;;;;;;;;;;;;;23.30;21.40;96900.16;5074624;28;19917;-96
2023/01/19 07:40:40;;;;;;;;;;;;;;;23.32;21.62;96906.06;5060969;28;19924;-96
2023/01/19 07:43:07;;;;;;;;;;;;;;;23.12;21.50;96916.84;5053449;28;19981;-96
2023/01/19 07:45:34;;;;;;;;;;;;;;;22.29;22.71;96906.13;5056922;28;19917;-96
2023/01/19 07:48:00;;;;;;;;;;;;;;;22.43;22.64;96902.06;5057313;28;19921;-94
2023/01/19 07:50:28;;;;;;;;;;;;;;;20.98;24.20;96889.75;5054861;28;19920;-95
2023/01/19 07:52:54;;;;;;;;;;;;;;;20.43;25.16;96910.41;5055374;28;19971;-95
2023/01/19 07:55:22;;;;;;;;;;;;;;;21.92;23.30;96913.31;5054461;28;19970;-96
2023/01/19 07:57:49;;;;;;;;;;;;;;;21.80;23.42;96916.06;5054401;28;19917;-95
2023/01/19 08:00:18;;;;;;;;;;;;;;;22.35;23.05;96904.31;5053480;28;19923;-95
2023/01/19 08:02:44;;;;;;;;;;;;;;;23.09;22.30;96917.75;5054751;28;20004;-94
2023/01/19 08:05:10;;;;;;;;;;;;;;;23.87;21.22;96915.59;5054521;28;19968;-95
2023/01/19 08:07:36;;;;;;;;;;;;;;;24.46;20.58;96917.22;5054824;28;19917;-94
2023/01/19 08:10:02;;;;;;;;;;;;;;;24.77;20.18;96914.31;5054767;28;19916;-93
2023/01/19 08:12:28;;;;;;;;;;;;;;;25.07;20.09;96931.03;5053318;28;19917;-94
2023/01/19 08:14:54;;;;;;;;;;;;;;;25.30;20.16;96941.63;5054655;28;19924;-93
2023/01/19 08:17:20;;;;;;;;;;;;;;;25.27;20.07;96936.97;5054215;28;19948;-93
2023/01/19 08:19:46;;;;;;;;;;;;;;;24.84;19.82;96933.66;5054480;28;19917;-93
2023/01/19 08:22:12;;;;;;;;;;;;;;;24.80;20.85;96947.88;5044143;28;19924;-93
2023/01/19 08:24:38;;;;;;;;;;;;;;;25.08;20.32;96941.03;5034501;28;19917;-92
2023/01/19 08:27:04;;;;;;;;;;;;;;;25.23;19.77;96935.53;5053529;28;20304;-92
2023/01/19 08:29:30;;;;;;;;;;;;;;;24.97;19.99;96929.47;5054301;28;20303;-92
2023/01/19 08:31:58;;;;;;;;;;;;;;;24.72;20.67;96940.97;5054361;28;19917;-92
2023/01/19 08:34:24;;;;;;;;;;;;;;;24.84;20.45;96930.88;5050347;28;19925;-92
2023/01/19 08:36:50;;;;;;;;;;;;;;;24.11;20.83;96927.09;5034462;28;19921;-91
2023/01/19 08:39:17;;;;;;;;;;;;;;;24.00;21.41;96935.91;5033944;28;19924;-92
2023/01/19 08:41:43;;;;;;;;;;;;;;;24.44;21.18;96933.72;5034406;28;19957;-92
2023/01/19 08:44:09;;;;;;;;;;;;;;;24.99;20.69;96935.41;5053939;28;19928;-92
2023/01/19 08:46:35;;;;;;;;;;;;;;;25.35;20.03;96934.59;5053633;28;20026;-92
2023/01/19 08:49:01;;;;;;;;;;;;;;;25.54;20.06;96936.16;5054190;28;20409;-92
2023/01/19 08:51:27;;;;;;;;;;;;;;;25.18;20.05;96948.19;5054088;28;20085;-91
2023/01/19 08:53:53;;;;;;;;;;;;;;;25.10;20.00;96932.91;5053707;28;19928;-91
2023/01/19 08:56:19;;;;;;;;;;;;;;;23.94;21.50;96920.94;5054126;28;19975;-92
2023/01/19 08:58:45;;;;;;;;;;;;;;;23.30;22.17;96923.34;5054134;28;20381;-91
2023/01/19 09:01:20;;;;;;;;;;;;;;;20.99;24.54;96910.88;5053056;28;19917;-91
2023/01/19 09:03:47;;;;;;;;;;;;;;;20.74;25.70;96910.00;5053769;28;19920;-91
2023/01/19 09:06:15;;;;;;;;;;;;;;;20.53;25.71;96914.13;5053547;28;20019;-91
2023/01/19 09:08:42;;;;;;;;;;;;;;;22.12;24.03;96929.88;5053575;28;20415;-91
2023/01/19 09:11:10;;;;;;;;;;;;;;;21.77;24.09;96930.94;5053848;28;19995;-91
2023/01/19 09:13:36;;;;;;;;;;;;;;;22.34;23.57;96929.94;5053982;28;19921;-91
2023/01/19 09:16:02;;;;;;;;;;;;;;;23.29;22.83;96937.81;5053741;28;19920;-91
2023/01/19 09:18:29;;;;;;;;;;;;;;;23.70;21.85;96940.28;5053708;28;19917;-91
2023/01/19 09:20:56;;;;;;;;;;;;;;;22.50;23.44;96947.34;5043154;28;19921;-90
2023/01/19 09:23:22;;;;;;;;;;;;;;;23.19;21.93;96941.78;5053481;28;20399;-90
2023/01/19 09:25:54;;;;;;;;;;;;;;;23.27;22.12;96941.06;5053801;28;19917;-91
2023/01/19 09:28:20;;;;;;;;;;;;;;;23.77;21.70;96945.63;5052999;28;20030;-90
2023/01/19 09:30:46;;;;;;;;;;;;;;;23.09;22.46;96942.94;5053756;28;19917;-90
2023/01/19 09:33:13;;;;;;;;;;;;;;;22.24;23.12;96942.25;5054495;28;19939;-90
2023/01/19 09:35:39;;;;;;;;;;;;;;;22.76;22.72;96936.91;5056011;28;19916;-91
2023/01/19 09:38:09;;;;;;;;;;;;;;;23.55;21.69;96949.69;5057254;28;19917;-90
2023/01/19 09:40:39;;;;;;;;;;;;;;;23.19;22.47;96953.00;5057630;28;19916;-90
2023/01/19 09:43:13;;;;;;;;;;;;;;;23.71;21.34;96936.22;5057624;28;20385;-90
2023/01/19 09:45:50;;;;;;;;;;;;;;;23.70;22.02;96929.06;5056756;28;19939;-92
2023/01/19 09:48:40;;;;;;;;;;;;;;;23.79;21.61;96931.13;5057207;28;20310;-90
2023/01/19 09:51:09;;;;;;;;;;;;;;;24.43;21.00;96935.78;5057271;28;19917;-91
2023/01/19 09:53:51;;;;;;;;;;;;;;;24.10;21.06;96923.50;5057074;28;20296;-91
2023/01/19 09:56:20;;;;;;;;;;;;;;;22.69;22.74;96914.75;5057490;28;19917;-90
2023/01/19 09:58:47;;;;;;;;;;;;;;;22.39;23.25;96918.97;5056777;28;19916;-91
2023/01/19 10:01:28;;;;;;;;;;;;;;;20.35;25.38;96922.94;5057377;28;19968;-91
2023/01/19 10:04:06;;;;;;;;;;;;;;;22.36;23.10;96933.84;5056757;28;19920;-91
2023/01/19 10:06:32;;;;;;;;;;;;;;;23.04;22.43;96935.91;5056755;28;19916;-92
2023/01/19 10:09:14;;;;;;;;;;;;;;;20.02;25.83;96922.13;5055825;28;19916;-92
2023/01/19 10:11:44;;;;;;;;;;;;;;;19.11;27.68;96924.94;5056970;28;19927;-91
2023/01/19 10:14:17;;;;;;;;;;;;;;;20.36;25.71;96926.53;5056653;28;19925;-91
2023/01/19 10:16:51;;;;;;;;;;;;;;;20.59;25.72;96920.72;5055739;28;19928;-92
2023/01/19 10:19:21;;;;;;;;;;;;;;;18.57;28.49;96915.28;5047625;28;19917;-93
2023/01/19 10:21:49;;;;;;;;;;;;;;;19.18;27.76;96912.91;5043792;28;19917;-93
2023/01/19 10:24:18;;;;;;;;;;;;;;;19.15;27.90;96910.97;5054317;28;20296;-93
2023/01/19 10:26:50;;;;;;;;;;;;;;;21.35;24.96;96905.09;5056914;28;19916;-92
2023/01/19 10:29:16;;;;;;;;;;;;;;;20.83;25.63;96902.56;5055453;28;19925;-92
2023/01/19 10:31:44;;;;;;;;;;;;;;;22.60;23.32;96904.28;5056578;28;19962;-93
2023/01/19 10:34:16;;;;;;;;;;;;;;;19.64;27.00;96896.00;5056448;28;19920;-92
2023/01/19 10:36:44;;;;;;;;;;;;;;;20.51;26.19;96888.69;5056374;28;20444;-93
2023/01/19 10:39:12;;;;;;;;;;;;;;;20.39;25.69;96895.00;5056592;28;19959;-92
2023/01/19 10:41:43;;;;;;;;;;;;;;;18.65;28.83;96897.25;5056925;28;19970;-92
2023/01/19 10:44:09;;;;;;;;;;;;;;;20.27;26.68;96898.47;5055711;28;19920;-92
2023/01/19 10:46:41;;;;;;;;;;;;;;;19.33;27.33;96889.09;5054750;28;19916;-92
2023/01/19 10:49:22;;;;;;;;;;;;;;;17.56;30.67;96890.75;5055961;28;19919;-92
2023/01/19 10:51:48;;;;;;;;;;;;;;;16.87;31.99;96911.47;5056182;28;19917;-92
2023/01/19 10:54:14;;;;;;;;;;;;;;;17.14;31.26;96909.53;5055897;28;19912;-93
2023/01/19 10:56:41;;;;;;;;;;;;;;;19.17;28.43;96892.63;5056486;28;20054;-93
2023/01/19 10:59:27;;;;;;;;;;;;;;;17.53;30.72;96894.34;5056423;28;19968;-94
2023/01/19 11:02:11;;;;;;;;;;;;;;;19.23;28.54;96893.69;5055726;28;20327;-94
2023/01/19 11:04:38;;;;;;;;;;;;;;;20.79;25.93;96889.94;5055484;28;19917;-95
2023/01/19 11:07:12;;;;;;;;;;;;;;;19.74;27.20;96888.63;5055111;28;19924;-95
2023/01/19 11:09:38;;;;;;;;;;;;;;;21.66;24.92;96889.34;5056147;28;19916;-95
2023/01/19 11:12:04;;;;;;;;;;;;;;;20.99;25.03;96880.19;5056328;28;20288;-96
2023/01/19 11:14:30;;;;;;;;;;;;;;;21.16;25.17;96876.13;5057030;28;19998;-94
2023/01/19 11:16:57;;;;;;;;;;;;;;;22.00;24.46;96878.31;5054368;28;19996;-95
2023/01/19 11:19:28;;;;;;;;;;;;;;;22.20;23.86;96868.88;5054945;28;19917;-95
2023/01/19 11:22:14;;;;;;;;;;;;;;;23.17;23.15;96868.66;5055340;28;19916;-94
2023/01/19 11:24:42;;;;;;;;;;;;;;;22.46;23.40;96865.59;5055945;28;19975;-95
2023/01/19 11:27:08;;;;;;;;;;;;;;;21.23;25.04;96867.56;5059258;28;19916;-91
2023/01/19 11:29:35;;;;;;;;;;;;;;;20.96;25.19;96861.53;5055980;28;19923;-92
2023/01/19 11:32:11;;;;;;;;;;;;;;;21.66;24.54;96866.22;5055969;28;19921;-92
2023/01/19 11:34:38;;;;;;;;;;;;;;;20.54;25.92;96869.06;5055179;28;19962;-91
2023/01/19 11:37:25;;;;;;;;;;;;;;;20.89;25.33;96860.94;5055379;28;19963;-91
2023/01/19 11:39:56;;;;;;;;;;;;;;;20.74;25.53;96868.94;5055286;28;19921;-92
2023/01/19 11:42:23;;;;;;;;;;;;;;;21.40;24.58;96865.44;5055289;28;19917;-92
2023/01/19 11:45:08;;;;;;;;;;;;;;;20.76;25.11;96872.06;5054905;28;20301;-92
2023/01/19 11:47:52;;;;;;;;;;;;;;;22.40;23.28;96877.81;5054913;28;19917;-92
2023/01/19 11:50:27;;;;;;;;;;;;;;;21.99;23.49;96878.75;5055418;28;20416;-91
2023/01/19 11:52:58;;;;;;;;;;;;;;;22.98;22.89;96875.38;5054811;28;19963;-92
2023/01/19 11:55:31;;;;;;;;;;;;;;;23.15;22.42;96859.94;5054933;28;20434;-91
2023/01/19 11:57:57;;;;;;;;;;;;;;;21.01;24.87;96858.19;5054663;28;19917;-91
2023/01/19 12:00:35;;;;;;;;;;;;;;;21.32;25.07;96859.28;5054861;28;19916;-91
2023/01/19 12:03:07;;;;;;;;;;;;;;;21.96;23.88;96858.06;5054838;28;19927;-91
2023/01/19 12:05:36;;;;;;;;;;;;;;;22.17;23.40;96853.78;5054550;28;19924;-90
2023/01/19 12:08:04;;;;;;;;;;;;;;;22.63;23.42;96858.63;5052507;28;20398;-92
2023/01/19 12:10:32;;;;;;;;;;;;;;;23.46;22.37;96855.16;5049572;28;20055;-91
2023/01/19 12:12:59;;;;;;;;;;;;;;;24.12;21.77;96858.53;5033829;28;19960;-91
2023/01/19 12:15:41;;;;;;;;;;;;;;;24.42;21.00;96858.44;5043625;28;19997;-91
2023/01/19 12:18:15;;;;;;;;;;;;;;;24.75;21.30;96858.63;5034351;28;20397;-92
2023/01/19 12:20:43;;;;;;;;;;;;;;;24.83;20.68;96859.91;5033966;28;20007;-91
2023/01/19 12:23:09;;;;;;;;;;;;;;;25.05;20.35;96860.50;5037365;28;19917;-92
2023/01/19 12:25:54;;;;;;;;;;;;;;;25.29;20.47;96869.84;5054110;28;19924;-92
2023/01/19 12:28:23;;;;;;;;;;;;;;;25.43;20.25;96868.41;5054745;28;19954;-92
2023/01/19 12:30:50;;;;;;;;;;;;;;;25.50;19.98;96873.72;5054580;28;19970;-92
2023/01/19 12:33:36;;;;;;;;;;;;;;;25.51;19.83;96880.13;5054479;28;19921;-92
2023/01/19 12:36:09;;;;;;;;;;;;;;;25.53;19.84;96880.44;5054402;28;19917;-92
2023/01/19 12:38:41;;;;;;;;;;;;;;;25.57;19.76;96883.84;5051332;28;20377;-91
2023/01/19 12:41:26;;;;;;;;;;;;;;;25.59;19.59;96879.31;5064662;28;20058;-91
2023/01/19 12:44:14;;;;;;;;;;;;;;;25.67;19.25;96880.53;5058187;28;19932;-91
2023/01/19 12:46:42;;;;;;;;;;;;;;;25.59;19.76;96868.06;5053952;28;19921;-91
2023/01/19 12:49:23;;;;;;;;;;;;;;;25.46;19.57;96873.13;5054385;28;19960;-91
2023/01/19 12:51:51;;;;;;;;;;;;;;;25.32;20.24;96876.56;5053972;28;19927;-91
2023/01/19 12:54:31;;;;;;;;;;;;;;;25.37;19.70;96878.72;5054206;28;19921;-91
2023/01/19 12:56:59;;;;;;;;;;;;;;;25.14;19.82;96873.75;5054616;28;19924;-91
2023/01/19 12:59:26;;;;;;;;;;;;;;;24.66;20.13;96870.66;5053506;28;19932;-91
2023/01/19 13:02:25;;;;;;;;;;;;;;;24.44;20.45;96872.00;5054116;28;19962;-91
2023/01/19 13:05:10;;;;;;;;;;;;;;;24.55;20.60;96880.78;5042168;28;19970;-91
2023/01/19 13:07:54;;;;;;;;;;;;;;;24.78;20.33;96879.41;5052307;28;20301;-91